Airfield :
LOGIN :

Register | Disclaimer

   EN    FR    IT 

 










Legend :    VFR   Marginal VFR   IFR   Intensive IFR   Very Intensive IFR
Visi :
Ceiling :
>= 8 km
>= 3000ft
5 to 8 km
1000 to 3000 ft
1500m to 5 km
500 to 1000 ft
800 to 1500m
200 to 500 ft
< 800m
< 200 ft
Symbols :   Thunderstorms  Fog  Heavy snow  Heavy precipitations  Wind > 20 kt
SIGMETs :     Misc.  Thunderstorms  Icing  Turbulence  Mountain Waves  Volcanic Ashes






- Airport Elevation : 1830 ft


EBLB - Butgenbach Elsenborn

CURRENT METAR :
  • 131055Z AUTO 25006KT 9999 OVC018/// 13/10 Q1014 WHT

EXPIRED METARs :
  • 131025Z AUTO 24010KT 9999 OVC019/// 12/08 Q1014 WHT
  • 130955Z AUTO 24008KT 9999 OVC014/// 12/09 Q1014 GRN
  • 130925Z AUTO 24008KT 9999 OVC013/// 11/09 Q1014 GRN
  • 130855Z AUTO 25007KT 9999 BKN011/// 11/08 Q1014 GRN
  • 130825Z AUTO 25008KT 9999 OVC012/// 10/08 Q1014 GRN
  • 130755Z AUTO 25007KT 9999 OVC011/// 10/08 Q1014 GRN
  • 130725Z AUTO 26008KT 9999 OVC011/// 10/09 Q1014 GRN
  • 130655Z AUTO 25008KT 9999 OVC008/// 10/08 Q1014 GRN
  • 130625Z AUTO 25009KT 9999 BKN007/// 10/08 Q1013 GRN
  • 130603Z AUTO 26008KT 9999 BKN006/// 10/08 Q1013 YLO

Expired Forecast.



MET'MAP, your aeronautical weather chart ! - Copyright ORBIFLY December 2007 - Disclaimer

ORBIFLY MET'MAP TEAM :

Programming & Development : Alexandra Zaïnal
Original concept : Baudouin d'Aumeries
Technical & hardware support : Manuel Goepfert
Assistance : Marc-Olivier Méhu




SOURCES & CREDITS :

   NOAA